sensor_id;sensor_type;location;lat;lon;timestamp;temperature;humidity
29353;DHT22;16344;50.364;8.944;2024-01-10T00:01:08;-4.30;1.00
29353;DHT22;16344;50.364;8.944;2024-01-10T00:03:34;-4.30;1.00
29353;DHT22;16344;50.364;8.944;2024-01-10T00:05:59;-4.40;1.00
29353;DHT22;16344;50.364;8.944;2024-01-10T00:08:25;-4.40;1.00
29353;DHT22;16344;50.364;8.944;2024-01-10T00:10:51;-4.30;1.00
29353;DHT22;16344;50.364;8.944;2024-01-10T00:13:17;-4.30;1.00
29353;DHT22;16344;50.364;8.944;2024-01-10T00:15:43;-4.30;1.00
29353;DHT22;16344;50.364;8.944;2024-01-10T00:18:08;-4.30;1.00
29353;DHT22;16344;50.364;8.944;2024-01-10T00:20:34;-4.40;1.00
29353;DHT22;16344;50.364;8.944;2024-01-10T00:22:59;-4.50;1.00
29353;DHT22;16344;50.364;8.944;2024-01-10T00:25:24;-4.40;1.00
29353;DHT22;16344;50.364;8.944;2024-01-10T00:27:50;-4.50;1.00
29353;DHT22;16344;50.364;8.944;2024-01-10T00:30:15;-4.50;1.00
29353;DHT22;16344;50.364;8.944;2024-01-10T00:32:41;-4.50;1.00
29353;DHT22;16344;50.364;8.944;2024-01-10T00:35:06;-4.60;1.00
29353;DHT22;16344;50.364;8.944;2024-01-10T00:37:32;-4.60;1.00
29353;DHT22;16344;50.364;8.944;2024-01-10T00:39:57;-4.60;1.00
29353;DHT22;16344;50.364;8.944;2024-01-10T00:42:23;-4.60;1.00
29353;DHT22;16344;50.364;8.944;2024-01-10T00:44:48;-4.50;1.00
29353;DHT22;16344;50.364;8.944;2024-01-10T00:47:14;-4.50;1.00
29353;DHT22;16344;50.364;8.944;2024-01-10T00:49:39;-4.50;1.00
29353;DHT22;16344;50.364;8.944;2024-01-10T00:52:05;-4.50;1.00
29353;DHT22;16344;50.364;8.944;2024-01-10T00:54:30;-4.50;1.00
29353;DHT22;16344;50.364;8.944;2024-01-10T00:56:56;-4.50;1.00
29353;DHT22;16344;50.364;8.944;2024-01-10T00:59:21;-4.60;1.00
29353;DHT22;16344;50.364;8.944;2024-01-10T01:01:47;-4.60;1.00
29353;DHT22;16344;50.364;8.944;2024-01-10T01:04:12;-4.60;1.00
29353;DHT22;16344;50.364;8.944;2024-01-10T01:06:38;-4.60;1.00
29353;DHT22;16344;50.364;8.944;2024-01-10T01:09:03;-4.60;1.00
29353;DHT22;16344;50.364;8.944;2024-01-10T01:11:28;-4.60;1.00
29353;DHT22;16344;50.364;8.944;2024-01-10T01:13:54;-4.80;1.00
29353;DHT22;16344;50.364;8.944;2024-01-10T01:16:19;-4.70;1.00
29353;DHT22;16344;50.364;8.944;2024-01-10T01:18:45;-4.60;1.00
29353;DHT22;16344;50.364;8.944;2024-01-10T01:21:11;-4.60;1.00
29353;DHT22;16344;50.364;8.944;2024-01-10T01:23:36;-4.60;1.00
29353;DHT22;16344;50.364;8.944;2024-01-10T01:26:02;-4.60;1.00
29353;DHT22;16344;50.364;8.944;2024-01-10T01:28:29;-4.70;1.00
29353;DHT22;16344;50.364;8.944;2024-01-10T01:30:54;-4.80;1.00
29353;DHT22;16344;50.364;8.944;2024-01-10T01:33:20;-4.80;1.00
29353;DHT22;16344;50.364;8.944;2024-01-10T01:35:45;-4.70;1.00
29353;DHT22;16344;50.364;8.944;2024-01-10T01:38:11;-4.70;1.00
29353;DHT22;16344;50.364;8.944;2024-01-10T01:40:36;-4.70;1.00
29353;DHT22;16344;50.364;8.944;2024-01-10T01:43:02;-4.70;1.00
29353;DHT22;16344;50.364;8.944;2024-01-10T01:45:27;-4.70;1.00
29353;DHT22;16344;50.364;8.944;2024-01-10T01:47:52;-4.70;1.00
29353;DHT22;16344;50.364;8.944;2024-01-10T01:50:18;-4.70;1.00
29353;DHT22;16344;50.364;8.944;2024-01-10T01:52:43;-4.80;1.00
29353;DHT22;16344;50.364;8.944;2024-01-10T01:55:09;-4.70;1.00
29353;DHT22;16344;50.364;8.944;2024-01-10T01:57:36;-4.70;1.00
29353;DHT22;16344;50.364;8.944;2024-01-10T02:00:02;-4.70;1.00
29353;DHT22;16344;50.364;8.944;2024-01-10T02:02:28;-4.80;1.00
29353;DHT22;16344;50.364;8.944;2024-01-10T02:04:55;-4.70;1.00
29353;DHT22;16344;50.364;8.944;2024-01-10T02:07:21;-4.70;1.00
29353;DHT22;16344;50.364;8.944;2024-01-10T02:09:46;-4.70;1.00
29353;DHT22;16344;50.364;8.944;2024-01-10T02:12:12;-4.70;1.00
29353;DHT22;16344;50.364;8.944;2024-01-10T02:14:37;-4.80;1.00
29353;DHT22;16344;50.364;8.944;2024-01-10T02:17:03;-4.90;1.00
29353;DHT22;16344;50.364;8.944;2024-01-10T02:19:28;-5.00;1.00
29353;DHT22;16344;50.364;8.944;2024-01-10T02:21:54;-5.10;1.00
29353;DHT22;16344;50.364;8.944;2024-01-10T02:24:21;-5.00;1.00
29353;DHT22;16344;50.364;8.944;2024-01-10T02:26:47;-5.00;1.00
29353;DHT22;16344;50.364;8.944;2024-01-10T02:29:12;-5.10;1.00
29353;DHT22;16344;50.364;8.944;2024-01-10T02:31:38;-5.00;1.00
29353;DHT22;16344;50.364;8.944;2024-01-10T02:34:03;-5.00;1.00
29353;DHT22;16344;50.364;8.944;2024-01-10T02:36:29;-5.00;1.00
29353;DHT22;16344;50.364;8.944;2024-01-10T02:38:54;-5.00;1.00
29353;DHT22;16344;50.364;8.944;2024-01-10T02:41:20;-5.00;1.00
29353;DHT22;16344;50.364;8.944;2024-01-10T02:43:46;-4.90;1.00
29353;DHT22;16344;50.364;8.944;2024-01-10T02:46:11;-4.90;1.00
29353;DHT22;16344;50.364;8.944;2024-01-10T02:48:37;-4.90;1.00
29353;DHT22;16344;50.364;8.944;2024-01-10T02:51:02;-5.00;1.00
29353;DHT22;16344;50.364;8.944;2024-01-10T02:53:28;-4.90;1.00
29353;DHT22;16344;50.364;8.944;2024-01-10T02:55:55;-5.00;1.00
29353;DHT22;16344;50.364;8.944;2024-01-10T02:58:20;-4.90;1.00
29353;DHT22;16344;50.364;8.944;2024-01-10T03:00:47;-4.90;1.00
29353;DHT22;16344;50.364;8.944;2024-01-10T03:03:13;-4.90;1.00
29353;DHT22;16344;50.364;8.944;2024-01-10T03:05:39;-4.90;1.00
29353;DHT22;16344;50.364;8.944;2024-01-10T03:08:04;-4.90;1.00
29353;DHT22;16344;50.364;8.944;2024-01-10T03:10:31;-4.90;1.00
29353;DHT22;16344;50.364;8.944;2024-01-10T03:12:57;-5.00;1.00
29353;DHT22;16344;50.364;8.944;2024-01-10T03:15:22;-5.10;1.00
29353;DHT22;16344;50.364;8.944;2024-01-10T03:17:48;-5.00;1.00
29353;DHT22;16344;50.364;8.944;2024-01-10T03:20:14;-4.90;1.00
29353;DHT22;16344;50.364;8.944;2024-01-10T03:22:39;-4.90;1.00
29353;DHT22;16344;50.364;8.944;2024-01-10T03:25:05;-4.80;1.00
29353;DHT22;16344;50.364;8.944;2024-01-10T03:27:30;-4.90;1.00
29353;DHT22;16344;50.364;8.944;2024-01-10T03:29:55;-4.90;1.00
29353;DHT22;16344;50.364;8.944;2024-01-10T03:32:21;-4.90;1.00
29353;DHT22;16344;50.364;8.944;2024-01-10T03:34:46;-4.90;1.00
29353;DHT22;16344;50.364;8.944;2024-01-10T03:37:14;-4.90;1.00
29353;DHT22;16344;50.364;8.944;2024-01-10T03:39:40;-4.90;1.00
29353;DHT22;16344;50.364;8.944;2024-01-10T03:42:05;-4.90;1.00
29353;DHT22;16344;50.364;8.944;2024-01-10T03:44:30;-4.80;1.00
29353;DHT22;16344;50.364;8.944;2024-01-10T03:46:56;-4.80;1.00
29353;DHT22;16344;50.364;8.944;2024-01-10T03:49:21;-4.90;1.00
29353;DHT22;16344;50.364;8.944;2024-01-10T03:51:47;-4.80;1.00
29353;DHT22;16344;50.364;8.944;2024-01-10T03:54:12;-5.00;1.00
29353;DHT22;16344;50.364;8.944;2024-01-10T03:56:38;-5.00;1.00
29353;DHT22;16344;50.364;8.944;2024-01-10T03:59:03;-5.00;1.00
29353;DHT22;16344;50.364;8.944;2024-01-10T04:01:29;-5.00;1.00
29353;DHT22;16344;50.364;8.944;2024-01-10T04:03:54;-5.00;1.00
29353;DHT22;16344;50.364;8.944;2024-01-10T04:06:19;-5.10;1.00
29353;DHT22;16344;50.364;8.944;2024-01-10T04:08:45;-5.00;1.00
29353;DHT22;16344;50.364;8.944;2024-01-10T04:11:10;-5.00;1.00
29353;DHT22;16344;50.364;8.944;2024-01-10T04:13:36;-5.00;1.00
29353;DHT22;16344;50.364;8.944;2024-01-10T04:16:01;-5.00;1.00
29353;DHT22;16344;50.364;8.944;2024-01-10T04:18:27;-5.00;1.00
29353;DHT22;16344;50.364;8.944;2024-01-10T04:20:52;-5.00;1.00
29353;DHT22;16344;50.364;8.944;2024-01-10T04:23:18;-4.90;1.00
29353;DHT22;16344;50.364;8.944;2024-01-10T04:25:43;-4.90;1.00
29353;DHT22;16344;50.364;8.944;2024-01-10T04:28:08;-4.90;1.00
29353;DHT22;16344;50.364;8.944;2024-01-10T04:30:34;-4.80;1.00
29353;DHT22;16344;50.364;8.944;2024-01-10T04:32:59;-4.80;1.00
29353;DHT22;16344;50.364;8.944;2024-01-10T04:35:25;-4.80;1.00
29353;DHT22;16344;50.364;8.944;2024-01-10T04:37:50;-4.90;1.00
29353;DHT22;16344;50.364;8.944;2024-01-10T04:40:16;-5.00;1.00
29353;DHT22;16344;50.364;8.944;2024-01-10T04:42:41;-5.00;1.00
29353;DHT22;16344;50.364;8.944;2024-01-10T04:45:07;-5.00;1.00
29353;DHT22;16344;50.364;8.944;2024-01-10T04:47:32;-5.00;1.00
29353;DHT22;16344;50.364;8.944;2024-01-10T04:49:58;-4.90;1.00
29353;DHT22;16344;50.364;8.944;2024-01-10T04:52:23;-5.00;1.00
29353;DHT22;16344;50.364;8.944;2024-01-10T04:54:49;-5.00;1.00
29353;DHT22;16344;50.364;8.944;2024-01-10T04:57:15;-5.10;1.00
29353;DHT22;16344;50.364;8.944;2024-01-10T04:59:41;-5.10;1.00
29353;DHT22;16344;50.364;8.944;2024-01-10T05:02:06;-5.10;1.00
29353;DHT22;16344;50.364;8.944;2024-01-10T05:04:32;-5.20;1.00
29353;DHT22;16344;50.364;8.944;2024-01-10T05:06:57;-5.20;1.00
29353;DHT22;16344;50.364;8.944;2024-01-10T05:09:23;-5.10;1.00
29353;DHT22;16344;50.364;8.944;2024-01-10T05:11:48;-5.20;1.00
29353;DHT22;16344;50.364;8.944;2024-01-10T05:14:16;-5.20;1.00
29353;DHT22;16344;50.364;8.944;2024-01-10T05:16:42;-5.20;1.00
29353;DHT22;16344;50.364;8.944;2024-01-10T05:19:07;-5.30;1.00
29353;DHT22;16344;50.364;8.944;2024-01-10T05:21:33;-5.30;1.00
29353;DHT22;16344;50.364;8.944;2024-01-10T05:23:58;-5.20;1.00
29353;DHT22;16344;50.364;8.944;2024-01-10T05:26:24;-5.20;1.00
29353;DHT22;16344;50.364;8.944;2024-01-10T05:28:49;-5.20;1.00
29353;DHT22;16344;50.364;8.944;2024-01-10T05:31:15;-5.20;1.00
29353;DHT22;16344;50.364;8.944;2024-01-10T05:33:40;-5.20;1.00
29353;DHT22;16344;50.364;8.944;2024-01-10T05:36:08;-5.10;1.00
29353;DHT22;16344;50.364;8.944;2024-01-10T05:38:33;-5.20;1.00
29353;DHT22;16344;50.364;8.944;2024-01-10T05:40:59;-5.10;1.00
29353;DHT22;16344;50.364;8.944;2024-01-10T05:43:24;-5.10;1.00
29353;DHT22;16344;50.364;8.944;2024-01-10T05:45:50;-5.00;1.00
29353;DHT22;16344;50.364;8.944;2024-01-10T05:48:16;-5.10;1.00
29353;DHT22;16344;50.364;8.944;2024-01-10T05:50:42;-5.00;1.00
29353;DHT22;16344;50.364;8.944;2024-01-10T05:53:08;-5.00;1.00
29353;DHT22;16344;50.364;8.944;2024-01-10T05:55:34;-5.00;1.00
29353;DHT22;16344;50.364;8.944;2024-01-10T05:57:59;-5.00;1.00
29353;DHT22;16344;50.364;8.944;2024-01-10T06:00:24;-5.00;1.00
29353;DHT22;16344;50.364;8.944;2024-01-10T06:02:50;-5.00;1.00
29353;DHT22;16344;50.364;8.944;2024-01-10T06:05:15;-5.00;1.00
29353;DHT22;16344;50.364;8.944;2024-01-10T06:07:41;-5.00;1.00
29353;DHT22;16344;50.364;8.944;2024-01-10T06:10:06;-5.00;1.00
29353;DHT22;16344;50.364;8.944;2024-01-10T06:12:32;-5.00;1.00
29353;DHT22;16344;50.364;8.944;2024-01-10T06:14:57;-5.10;1.00
29353;DHT22;16344;50.364;8.944;2024-01-10T06:17:23;-5.10;1.00
29353;DHT22;16344;50.364;8.944;2024-01-10T06:19:49;-5.00;1.00
29353;DHT22;16344;50.364;8.944;2024-01-10T06:22:15;-5.00;1.00
29353;DHT22;16344;50.364;8.944;2024-01-10T06:24:41;-5.00;1.00
29353;DHT22;16344;50.364;8.944;2024-01-10T06:27:07;-5.00;1.00
29353;DHT22;16344;50.364;8.944;2024-01-10T06:29:33;-4.90;1.00
29353;DHT22;16344;50.364;8.944;2024-01-10T06:31:59;-4.90;1.00
29353;DHT22;16344;50.364;8.944;2024-01-10T06:34:26;-4.90;1.00
29353;DHT22;16344;50.364;8.944;2024-01-10T06:36:52;-4.90;1.00
29353;DHT22;16344;50.364;8.944;2024-01-10T06:39:17;-4.90;1.00
29353;DHT22;16344;50.364;8.944;2024-01-10T06:41:48;-5.00;1.00
29353;DHT22;16344;50.364;8.944;2024-01-10T06:44:14;-4.90;1.00
29353;DHT22;16344;50.364;8.944;2024-01-10T06:46:39;-5.00;1.00
29353;DHT22;16344;50.364;8.944;2024-01-10T06:49:05;-5.00;1.00
29353;DHT22;16344;50.364;8.944;2024-01-10T06:51:32;-4.90;1.00
29353;DHT22;16344;50.364;8.944;2024-01-10T06:53:58;-4.90;1.00
29353;DHT22;16344;50.364;8.944;2024-01-10T06:56:31;-4.90;1.00
29353;DHT22;16344;50.364;8.944;2024-01-10T06:58:57;-4.90;1.00
29353;DHT22;16344;50.364;8.944;2024-01-10T07:01:23;-4.90;1.00
29353;DHT22;16344;50.364;8.944;2024-01-10T07:03:49;-4.90;1.00
29353;DHT22;16344;50.364;8.944;2024-01-10T07:06:14;-4.90;1.00
29353;DHT22;16344;50.364;8.944;2024-01-10T07:08:40;-4.90;1.00
29353;DHT22;16344;50.364;8.944;2024-01-10T07:11:05;-4.90;1.00
29353;DHT22;16344;50.364;8.944;2024-01-10T07:13:31;-4.90;1.00
29353;DHT22;16344;50.364;8.944;2024-01-10T07:15:57;-4.90;1.00
29353;DHT22;16344;50.364;8.944;2024-01-10T07:18:22;-4.90;1.00
29353;DHT22;16344;50.364;8.944;2024-01-10T07:20:48;-4.90;1.00
29353;DHT22;16344;50.364;8.944;2024-01-10T07:23:13;-4.80;1.00
29353;DHT22;16344;50.364;8.944;2024-01-10T07:25:38;-4.90;1.00
29353;DHT22;16344;50.364;8.944;2024-01-10T07:28:04;-5.00;3.50
29353;DHT22;16344;50.364;8.944;2024-01-10T07:30:29;-4.90;2.40
29353;DHT22;16344;50.364;8.944;2024-01-10T07:32:58;-4.80;1.00
29353;DHT22;16344;50.364;8.944;2024-01-10T07:35:23;-4.80;15.10
29353;DHT22;16344;50.364;8.944;2024-01-10T07:37:49;-4.80;16.10
29353;DHT22;16344;50.364;8.944;2024-01-10T07:40:14;-4.80;13.30
29353;DHT22;16344;50.364;8.944;2024-01-10T07:42:40;-4.70;6.70
29353;DHT22;16344;50.364;8.944;2024-01-10T07:45:05;-4.60;1.00
29353;DHT22;16344;50.364;8.944;2024-01-10T07:47:31;-4.60;1.00
29353;DHT22;16344;50.364;8.944;2024-01-10T07:49:57;-4.60;1.70
29353;DHT22;16344;50.364;8.944;2024-01-10T07:52:22;-4.50;1.00
29353;DHT22;16344;50.364;8.944;2024-01-10T07:54:48;-4.30;1.00
29353;DHT22;16344;50.364;8.944;2024-01-10T07:57:13;-4.30;1.00
29353;DHT22;16344;50.364;8.944;2024-01-10T07:59:39;-4.20;1.00
29353;DHT22;16344;50.364;8.944;2024-01-10T08:02:05;-4.10;1.00
29353;DHT22;16344;50.364;8.944;2024-01-10T08:04:30;-3.90;1.00
29353;DHT22;16344;50.364;8.944;2024-01-10T08:06:55;-3.80;1.00
29353;DHT22;16344;50.364;8.944;2024-01-10T08:09:21;-3.80;1.00
29353;DHT22;16344;50.364;8.944;2024-01-10T08:11:47;-3.70;1.00
29353;DHT22;16344;50.364;8.944;2024-01-10T08:14:13;-3.60;1.00
29353;DHT22;16344;50.364;8.944;2024-01-10T08:16:39;-3.40;1.00
29353;DHT22;16344;50.364;8.944;2024-01-10T08:19:04;-3.20;1.00
29353;DHT22;16344;50.364;8.944;2024-01-10T08:21:29;-3.10;1.00
29353;DHT22;16344;50.364;8.944;2024-01-10T08:23:55;-2.90;1.00
29353;DHT22;16344;50.364;8.944;2024-01-10T08:26:20;-2.80;1.00
29353;DHT22;16344;50.364;8.944;2024-01-10T08:28:46;-2.60;1.00
29353;DHT22;16344;50.364;8.944;2024-01-10T08:31:11;-2.50;1.00
29353;DHT22;16344;50.364;8.944;2024-01-10T08:33:38;-2.60;1.00
29353;DHT22;16344;50.364;8.944;2024-01-10T08:36:04;-2.50;1.00
29353;DHT22;16344;50.364;8.944;2024-01-10T08:38:30;-2.50;1.00
29353;DHT22;16344;50.364;8.944;2024-01-10T08:40:56;-2.50;1.00
29353;DHT22;16344;50.364;8.944;2024-01-10T08:43:21;-2.50;1.00
29353;DHT22;16344;50.364;8.944;2024-01-10T08:45:47;-2.50;1.00
29353;DHT22;16344;50.364;8.944;2024-01-10T08:48:12;-2.50;1.00
29353;DHT22;16344;50.364;8.944;2024-01-10T08:50:38;-2.60;1.00
29353;DHT22;16344;50.364;8.944;2024-01-10T08:53:04;-2.60;1.00
29353;DHT22;16344;50.364;8.944;2024-01-10T08:55:31;-2.60;1.00
29353;DHT22;16344;50.364;8.944;2024-01-10T08:57:56;-2.60;1.00
29353;DHT22;16344;50.364;8.944;2024-01-10T09:00:22;-2.50;1.00
29353;DHT22;16344;50.364;8.944;2024-01-10T09:02:47;-2.50;1.00
29353;DHT22;16344;50.364;8.944;2024-01-10T09:05:13;-2.50;1.00
29353;DHT22;16344;50.364;8.944;2024-01-10T09:07:38;-2.50;1.00
29353;DHT22;16344;50.364;8.944;2024-01-10T09:10:04;-2.40;1.00
29353;DHT22;16344;50.364;8.944;2024-01-10T09:12:30;-2.30;1.00
29353;DHT22;16344;50.364;8.944;2024-01-10T09:14:56;-2.20;1.00
29353;DHT22;16344;50.364;8.944;2024-01-10T09:17:21;-2.20;1.00
29353;DHT22;16344;50.364;8.944;2024-01-10T09:19:47;-2.10;1.00
29353;DHT22;16344;50.364;8.944;2024-01-10T09:22:12;-2.20;1.00
29353;DHT22;16344;50.364;8.944;2024-01-10T09:24:39;-2.10;1.00
29353;DHT22;16344;50.364;8.944;2024-01-10T09:27:04;-2.10;1.00
29353;DHT22;16344;50.364;8.944;2024-01-10T09:29:29;-2.10;1.00
29353;DHT22;16344;50.364;8.944;2024-01-10T09:31:56;-2.10;1.00
29353;DHT22;16344;50.364;8.944;2024-01-10T09:34:22;-2.10;1.00
29353;DHT22;16344;50.364;8.944;2024-01-10T09:36:47;-2.20;1.00
29353;DHT22;16344;50.364;8.944;2024-01-10T09:39:13;-2.20;1.00
29353;DHT22;16344;50.364;8.944;2024-01-10T09:41:45;-2.20;1.00
29353;DHT22;16344;50.364;8.944;2024-01-10T09:44:11;-2.20;1.00
29353;DHT22;16344;50.364;8.944;2024-01-10T09:46:37;-2.30;1.00
29353;DHT22;16344;50.364;8.944;2024-01-10T09:49:03;-2.30;1.00
29353;DHT22;16344;50.364;8.944;2024-01-10T09:51:29;-2.30;1.00
29353;DHT22;16344;50.364;8.944;2024-01-10T09:53:55;-2.30;1.00
29353;DHT22;16344;50.364;8.944;2024-01-10T09:56:22;-2.20;1.00
29353;DHT22;16344;50.364;8.944;2024-01-10T09:58:48;-2.10;1.00
29353;DHT22;16344;50.364;8.944;2024-01-10T10:01:14;-2.10;1.00
29353;DHT22;16344;50.364;8.944;2024-01-10T10:03:41;-2.00;1.00
29353;DHT22;16344;50.364;8.944;2024-01-10T10:06:07;-1.90;1.00
29353;DHT22;16344;50.364;8.944;2024-01-10T10:08:33;-2.00;1.00
29353;DHT22;16344;50.364;8.944;2024-01-10T10:10:58;-2.10;1.00
29353;DHT22;16344;50.364;8.944;2024-01-10T10:13:28;-2.10;1.00
29353;DHT22;16344;50.364;8.944;2024-01-10T10:15:57;-2.00;1.00
29353;DHT22;16344;50.364;8.944;2024-01-10T10:18:24;-2.00;1.00
29353;DHT22;16344;50.364;8.944;2024-01-10T10:20:49;-2.00;1.00
29353;DHT22;16344;50.364;8.944;2024-01-10T10:23:31;-2.00;1.00
29353;DHT22;16344;50.364;8.944;2024-01-10T10:25:56;-2.00;1.00
29353;DHT22;16344;50.364;8.944;2024-01-10T10:28:22;-2.00;1.00
29353;DHT22;16344;50.364;8.944;2024-01-10T10:30:53;-2.00;1.00
29353;DHT22;16344;50.364;8.944;2024-01-10T10:33:19;-2.00;1.00
29353;DHT22;16344;50.364;8.944;2024-01-10T10:35:44;-1.90;1.00
29353;DHT22;16344;50.364;8.944;2024-01-10T10:38:10;-1.90;1.00
29353;DHT22;16344;50.364;8.944;2024-01-10T10:40:36;-1.90;1.00
29353;DHT22;16344;50.364;8.944;2024-01-10T10:43:01;-1.80;1.00
29353;DHT22;16344;50.364;8.944;2024-01-10T10:45:29;-1.80;1.00
29353;DHT22;16344;50.364;8.944;2024-01-10T10:47:57;-1.80;1.00
29353;DHT22;16344;50.364;8.944;2024-01-10T10:50:23;-1.90;1.00
29353;DHT22;16344;50.364;8.944;2024-01-10T10:52:49;-1.80;1.00
29353;DHT22;16344;50.364;8.944;2024-01-10T10:55:15;-1.80;1.00
29353;DHT22;16344;50.364;8.944;2024-01-10T10:57:43;-1.80;1.00
29353;DHT22;16344;50.364;8.944;2024-01-10T11:00:09;-1.80;1.00
29353;DHT22;16344;50.364;8.944;2024-01-10T11:02:35;-1.80;1.00
29353;DHT22;16344;50.364;8.944;2024-01-10T11:05:02;-1.90;1.00
29353;DHT22;16344;50.364;8.944;2024-01-10T11:07:28;-1.80;1.00
29353;DHT22;16344;50.364;8.944;2024-01-10T11:09:54;-1.80;1.00
29353;DHT22;16344;50.364;8.944;2024-01-10T11:12:37;-1.70;1.00
29353;DHT22;16344;50.364;8.944;2024-01-10T11:22:53;-1.10;1.00
29353;DHT22;16344;50.364;8.944;2024-01-10T11:25:22;-1.20;1.00
29353;DHT22;16344;50.364;8.944;2024-01-10T11:27:53;-1.10;1.00
29353;DHT22;16344;50.364;8.944;2024-01-10T11:30:36;-1.10;1.00
29353;DHT22;16344;50.364;8.944;2024-01-10T11:38:31;-1.00;1.00
29353;DHT22;16344;50.364;8.944;2024-01-10T11:40:56;-1.00;1.00
29353;DHT22;16344;50.364;8.944;2024-01-10T11:43:22;-1.00;1.00
29353;DHT22;16344;50.364;8.944;2024-01-10T11:45:56;-1.00;1.00
29353;DHT22;16344;50.364;8.944;2024-01-10T11:48:26;-0.90;1.00
29353;DHT22;16344;50.364;8.944;2024-01-10T11:50:52;-0.90;1.00
29353;DHT22;16344;50.364;8.944;2024-01-10T11:56:11;-1.00;1.00
29353;DHT22;16344;50.364;8.944;2024-01-10T12:01:21;-0.90;1.00
29353;DHT22;16344;50.364;8.944;2024-01-10T12:03:47;-0.70;1.00
29353;DHT22;16344;50.364;8.944;2024-01-10T12:06:16;-0.60;1.00
29353;DHT22;16344;50.364;8.944;2024-01-10T12:08:42;-0.50;1.00
29353;DHT22;16344;50.364;8.944;2024-01-10T12:11:07;-0.40;1.00
29353;DHT22;16344;50.364;8.944;2024-01-10T12:13:34;-0.40;1.00
29353;DHT22;16344;50.364;8.944;2024-01-10T12:16:00;-0.40;1.00
29353;DHT22;16344;50.364;8.944;2024-01-10T12:18:26;-0.30;1.00
29353;DHT22;16344;50.364;8.944;2024-01-10T12:20:51;-0.30;1.00
29353;DHT22;16344;50.364;8.944;2024-01-10T12:23:16;-0.30;1.00
29353;DHT22;16344;50.364;8.944;2024-01-10T12:25:42;-0.20;1.00
29353;DHT22;16344;50.364;8.944;2024-01-10T12:28:07;-0.20;1.00
29353;DHT22;16344;50.364;8.944;2024-01-10T12:30:33;-0.30;1.00
29353;DHT22;16344;50.364;8.944;2024-01-10T12:32:59;-0.20;1.00
29353;DHT22;16344;50.364;8.944;2024-01-10T12:35:25;-0.20;1.00
29353;DHT22;16344;50.364;8.944;2024-01-10T12:37:56;-0.10;1.00
29353;DHT22;16344;50.364;8.944;2024-01-10T12:40:22;0.00;1.00
29353;DHT22;16344;50.364;8.944;2024-01-10T12:42:47;0.10;1.00
29353;DHT22;16344;50.364;8.944;2024-01-10T12:45:20;0.10;1.00
29353;DHT22;16344;50.364;8.944;2024-01-10T12:47:45;0.20;1.00
29353;DHT22;16344;50.364;8.944;2024-01-10T12:50:12;0.20;1.00
29353;DHT22;16344;50.364;8.944;2024-01-10T12:52:37;0.20;1.00
29353;DHT22;16344;50.364;8.944;2024-01-10T12:55:05;0.30;1.00
29353;DHT22;16344;50.364;8.944;2024-01-10T12:57:30;0.30;1.00
29353;DHT22;16344;50.364;8.944;2024-01-10T12:59:56;0.30;1.00
29353;DHT22;16344;50.364;8.944;2024-01-10T13:02:21;0.40;1.00
29353;DHT22;16344;50.364;8.944;2024-01-10T13:04:47;0.50;1.00
29353;DHT22;16344;50.364;8.944;2024-01-10T13:07:12;0.50;1.00
29353;DHT22;16344;50.364;8.944;2024-01-10T13:09:38;0.40;1.00
29353;DHT22;16344;50.364;8.944;2024-01-10T13:12:03;0.50;1.00
29353;DHT22;16344;50.364;8.944;2024-01-10T13:14:29;0.50;1.00
29353;DHT22;16344;50.364;8.944;2024-01-10T13:16:56;0.60;1.00
29353;DHT22;16344;50.364;8.944;2024-01-10T13:19:22;0.60;1.00
29353;DHT22;16344;50.364;8.944;2024-01-10T13:21:47;0.60;1.00
29353;DHT22;16344;50.364;8.944;2024-01-10T13:24:13;0.70;1.00
29353;DHT22;16344;50.364;8.944;2024-01-10T13:26:38;0.70;1.00
29353;DHT22;16344;50.364;8.944;2024-01-10T13:29:04;0.60;1.00
29353;DHT22;16344;50.364;8.944;2024-01-10T13:31:29;0.70;1.00
29353;DHT22;16344;50.364;8.944;2024-01-10T13:33:54;0.50;1.00
29353;DHT22;16344;50.364;8.944;2024-01-10T13:36:20;0.40;1.00
29353;DHT22;16344;50.364;8.944;2024-01-10T13:38:46;0.40;1.00
29353;DHT22;16344;50.364;8.944;2024-01-10T13:41:11;0.40;1.00
29353;DHT22;16344;50.364;8.944;2024-01-10T13:43:36;0.40;1.00
29353;DHT22;16344;50.364;8.944;2024-01-10T13:46:02;0.50;1.00
29353;DHT22;16344;50.364;8.944;2024-01-10T13:48:28;0.50;1.00
29353;DHT22;16344;50.364;8.944;2024-01-10T13:50:54;0.50;1.00
29353;DHT22;16344;50.364;8.944;2024-01-10T13:53:19;0.50;1.00
29353;DHT22;16344;50.364;8.944;2024-01-10T13:55:45;0.50;1.00
29353;DHT22;16344;50.364;8.944;2024-01-10T13:58:11;0.50;1.00
29353;DHT22;16344;50.364;8.944;2024-01-10T14:00:37;0.50;1.00
29353;DHT22;16344;50.364;8.944;2024-01-10T14:03:05;0.40;1.00
29353;DHT22;16344;50.364;8.944;2024-01-10T14:05:31;0.50;1.00
29353;DHT22;16344;50.364;8.944;2024-01-10T14:07:56;0.50;1.00
29353;DHT22;16344;50.364;8.944;2024-01-10T14:10:22;0.50;1.00
29353;DHT22;16344;50.364;8.944;2024-01-10T14:12:47;0.60;1.00
29353;DHT22;16344;50.364;8.944;2024-01-10T14:15:13;0.60;1.00
29353;DHT22;16344;50.364;8.944;2024-01-10T14:17:39;0.50;1.00
29353;DHT22;16344;50.364;8.944;2024-01-10T14:20:05;0.40;1.00
29353;DHT22;16344;50.364;8.944;2024-01-10T14:22:35;0.50;1.00
29353;DHT22;16344;50.364;8.944;2024-01-10T14:25:00;0.50;1.00
29353;DHT22;16344;50.364;8.944;2024-01-10T14:27:25;0.40;1.00
29353;DHT22;16344;50.364;8.944;2024-01-10T14:29:51;0.30;1.00
29353;DHT22;16344;50.364;8.944;2024-01-10T14:32:16;0.40;1.00
29353;DHT22;16344;50.364;8.944;2024-01-10T14:34:42;0.30;1.00
29353;DHT22;16344;50.364;8.944;2024-01-10T14:37:07;0.30;1.00
29353;DHT22;16344;50.364;8.944;2024-01-10T14:39:34;0.30;1.00
29353;DHT22;16344;50.364;8.944;2024-01-10T14:41:59;0.30;1.00
29353;DHT22;16344;50.364;8.944;2024-01-10T14:44:25;0.20;1.00
29353;DHT22;16344;50.364;8.944;2024-01-10T14:46:50;0.20;1.00
29353;DHT22;16344;50.364;8.944;2024-01-10T14:49:16;0.10;1.00
29353;DHT22;16344;50.364;8.944;2024-01-10T14:51:41;0.10;1.00
29353;DHT22;16344;50.364;8.944;2024-01-10T14:54:07;0.00;1.00
29353;DHT22;16344;50.364;8.944;2024-01-10T14:56:32;0.00;1.00
29353;DHT22;16344;50.364;8.944;2024-01-10T14:58:59;0.10;1.00
29353;DHT22;16344;50.364;8.944;2024-01-10T15:01:24;0.00;1.00
29353;DHT22;16344;50.364;8.944;2024-01-10T15:03:50;0.00;1.00
29353;DHT22;16344;50.364;8.944;2024-01-10T15:06:17;0.00;1.00
29353;DHT22;16344;50.364;8.944;2024-01-10T15:08:42;0.00;1.00
29353;DHT22;16344;50.364;8.944;2024-01-10T15:11:08;0.00;1.00
29353;DHT22;16344;50.364;8.944;2024-01-10T15:13:36;0.00;1.00
29353;DHT22;16344;50.364;8.944;2024-01-10T15:16:02;0.10;1.00
29353;DHT22;16344;50.364;8.944;2024-01-10T15:18:28;0.10;1.00
29353;DHT22;16344;50.364;8.944;2024-01-10T15:20:53;0.10;1.00
29353;DHT22;16344;50.364;8.944;2024-01-10T15:23:19;0.00;1.00
29353;DHT22;16344;50.364;8.944;2024-01-10T15:25:44;0.00;1.00
29353;DHT22;16344;50.364;8.944;2024-01-10T15:28:10;0.10;1.00
29353;DHT22;16344;50.364;8.944;2024-01-10T15:30:35;0.20;1.00
29353;DHT22;16344;50.364;8.944;2024-01-10T15:33:00;0.10;1.00
29353;DHT22;16344;50.364;8.944;2024-01-10T15:35:26;0.10;1.00
29353;DHT22;16344;50.364;8.944;2024-01-10T15:37:51;0.00;1.00
29353;DHT22;16344;50.364;8.944;2024-01-10T15:40:18;-0.10;1.00
29353;DHT22;16344;50.364;8.944;2024-01-10T15:42:43;-0.10;1.00
29353;DHT22;16344;50.364;8.944;2024-01-10T15:45:12;-0.10;1.00
29353;DHT22;16344;50.364;8.944;2024-01-10T15:47:39;-0.10;1.00
29353;DHT22;16344;50.364;8.944;2024-01-10T15:50:05;-0.20;1.00
29353;DHT22;16344;50.364;8.944;2024-01-10T15:52:30;-0.30;1.00
29353;DHT22;16344;50.364;8.944;2024-01-10T15:54:57;-0.30;1.00
29353;DHT22;16344;50.364;8.944;2024-01-10T15:57:23;-0.50;1.00
29353;DHT22;16344;50.364;8.944;2024-01-10T15:59:49;-0.50;1.00